createdAt,value
2023-12-29T00:01:04.564Z,2.40
2023-12-29T00:03:13.819Z,2.13
2023-12-29T00:05:22.812Z,3.77
2023-12-29T00:07:33.499Z,3.63
2023-12-29T00:09:42.968Z,2.97
2023-12-29T00:11:51.389Z,2.97
2023-12-29T00:14:01.273Z,3.80
2023-12-29T00:16:10.620Z,4.13
2023-12-29T00:18:19.657Z,3.70
2023-12-29T00:20:37.589Z,3.43
2023-12-29T00:22:52.042Z,5.37
2023-12-29T00:25:00.974Z,5.03
2023-12-29T00:27:09.873Z,3.80
2023-12-29T00:29:19.142Z,3.83
2023-12-29T00:31:28.717Z,5.30
2023-12-29T00:33:38.688Z,4.10
2023-12-29T00:35:47.548Z,3.03
2023-12-29T00:38:00.866Z,4.03
2023-12-29T00:40:11.042Z,3.63
2023-12-29T00:42:20.142Z,4.40
2023-12-29T00:44:29.042Z,3.70
2023-12-29T00:46:38.084Z,3.93
2023-12-29T00:48:46.082Z,5.73
2023-12-29T00:50:55.041Z,3.57
2023-12-29T00:53:05.847Z,5.33
2023-12-29T00:55:15.486Z,3.47
2023-12-29T00:57:24.631Z,3.67
2023-12-29T00:59:34.317Z,5.17
2023-12-29T01:01:43.749Z,4.10
2023-12-29T01:03:55.935Z,3.70
2023-12-29T01:06:05.068Z,3.40
2023-12-29T01:08:16.404Z,2.97
2023-12-29T01:10:25.276Z,2.40
2023-12-29T01:12:34.116Z,3.33
2023-12-29T01:14:43.241Z,2.47
2023-12-29T01:16:50.886Z,4.00
2023-12-29T01:19:00.290Z,3.03
2023-12-29T01:21:09.584Z,1.77
2023-12-29T01:23:20.278Z,2.93
2023-12-29T01:25:29.503Z,1.77
2023-12-29T01:27:38.295Z,3.23
2023-12-29T01:29:47.524Z,1.97
2023-12-29T01:31:56.545Z,4.03
2023-12-29T01:34:05.718Z,3.13
2023-12-29T01:36:25.086Z,2.60
2023-12-29T01:38:36.506Z,2.20
2023-12-29T01:40:48.825Z,1.73
2023-12-29T01:42:57.586Z,2.87
2023-12-29T01:45:06.899Z,2.67
2023-12-29T01:47:18.285Z,2.10
2023-12-29T01:49:27.078Z,2.63
2023-12-29T01:51:34.935Z,2.40
2023-12-29T01:53:48.617Z,2.43
2023-12-29T01:55:59.232Z,2.93
2023-12-29T01:58:08.917Z,3.47
2023-12-29T02:00:19.465Z,3.27
2023-12-29T02:02:29.290Z,3.00
2023-12-29T02:04:38.984Z,2.77
2023-12-29T02:06:48.068Z,2.27
2023-12-29T02:08:58.163Z,3.37
2023-12-29T02:11:07.673Z,2.17
2023-12-29T02:13:16.884Z,3.17
2023-12-29T02:15:24.960Z,2.97
2023-12-29T02:17:35.024Z,2.60
2023-12-29T02:19:46.177Z,3.03
2023-12-29T02:21:55.602Z,2.97
2023-12-29T02:24:06.006Z,3.40
2023-12-29T02:26:19.180Z,4.37
2023-12-29T02:28:29.741Z,1.97
2023-12-29T02:30:41.787Z,3.07
2023-12-29T02:32:51.205Z,5.10
2023-12-29T02:35:00.243Z,3.90
2023-12-29T02:37:11.229Z,4.33
2023-12-29T02:39:20.523Z,2.70
2023-12-29T02:41:34.244Z,3.20
2023-12-29T02:43:43.292Z,4.57
2023-12-29T02:45:52.372Z,5.63
2023-12-29T02:48:02.091Z,3.90
2023-12-29T02:50:11.902Z,3.27
2023-12-29T02:52:21.265Z,5.03
2023-12-29T02:54:30.810Z,6.90
2023-12-29T02:56:42.054Z,5.73
2023-12-29T02:58:53.034Z,4.87
2023-12-29T03:01:02.487Z,5.43
2023-12-29T03:03:12.176Z,4.30
2023-12-29T03:05:20.306Z,5.43
2023-12-29T03:07:29.501Z,5.67
2023-12-29T03:09:39.835Z,4.67
2023-12-29T03:11:50.812Z,4.73
2023-12-29T03:14:00.219Z,6.17
2023-12-29T03:16:09.420Z,6.03
2023-12-29T03:18:18.497Z,5.00
2023-12-29T03:20:27.239Z,4.43
2023-12-29T03:22:36.825Z,4.67
2023-12-29T03:24:46.227Z,2.80
2023-12-29T03:26:57.390Z,5.50
2023-12-29T03:29:06.376Z,6.30
2023-12-29T03:31:15.747Z,6.87
2023-12-29T03:33:25.233Z,4.27
2023-12-29T03:35:34.645Z,4.63
2023-12-29T03:37:44.132Z,6.50
2023-12-29T03:39:53.121Z,5.13
2023-12-29T03:42:03.502Z,7.80
2023-12-29T03:44:12.869Z,5.97
2023-12-29T03:46:23.023Z,6.80
2023-12-29T03:48:32.007Z,5.33
2023-12-29T03:50:41.419Z,6.00
2023-12-29T03:52:50.641Z,8.00
2023-12-29T03:55:00.038Z,9.73
2023-12-29T03:57:12.125Z,8.07
2023-12-29T03:59:22.408Z,8.33
2023-12-29T04:01:31.895Z,8.90
2023-12-29T04:03:40.085Z,6.37
2023-12-29T04:05:49.280Z,5.73
2023-12-29T04:07:58.688Z,6.63
2023-12-29T04:10:07.181Z,7.37
2023-12-29T04:12:17.646Z,9.00
2023-12-29T04:14:27.627Z,10.73
2023-12-29T04:16:36.664Z,11.47
2023-12-29T04:18:46.256Z,9.67
2023-12-29T04:20:55.794Z,12.23
2023-12-29T04:23:06.941Z,7.33
2023-12-29T04:25:15.766Z,7.10
2023-12-29T04:27:26.636Z,5.13
2023-12-29T04:29:35.445Z,9.23
2023-12-29T04:31:45.510Z,9.57
2023-12-29T04:33:54.944Z,13.57
2023-12-29T04:36:04.616Z,10.83
2023-12-29T04:38:13.771Z,6.87
2023-12-29T04:40:23.710Z,12.60
2023-12-29T04:42:35.839Z,10.23
2023-12-29T04:44:44.983Z,4.80
2023-12-29T04:46:53.742Z,5.13
2023-12-29T04:49:02.653Z,3.40
2023-12-29T04:51:11.931Z,2.63
2023-12-29T04:53:20.930Z,2.73
2023-12-29T04:55:31.505Z,2.97
2023-12-29T04:57:45.259Z,4.20
2023-12-29T04:59:54.671Z,2.73
2023-12-29T05:02:06.797Z,3.13
2023-12-29T05:04:18.483Z,4.00
2023-12-29T05:06:27.775Z,2.13
2023-12-29T05:08:36.955Z,1.60
2023-12-29T05:10:46.343Z,2.37
2023-12-29T05:12:57.520Z,2.13
2023-12-29T05:15:07.276Z,3.57
2023-12-29T05:17:16.800Z,1.90
2023-12-29T05:19:25.706Z,1.73
2023-12-29T05:21:35.022Z,1.87
2023-12-29T05:23:42.854Z,1.70
2023-12-29T05:25:51.783Z,3.63
2023-12-29T05:28:03.705Z,2.87
2023-12-29T05:30:14.710Z,1.53
2023-12-29T05:32:23.840Z,2.00
2023-12-29T05:34:33.918Z,4.13
2023-12-29T05:36:43.753Z,1.37
2023-12-29T05:38:52.590Z,1.23
2023-12-29T05:41:02.545Z,1.37
2023-12-29T05:43:14.391Z,1.13
2023-12-29T05:45:23.518Z,1.17
2023-12-29T05:47:35.782Z,1.80
2023-12-29T05:49:45.234Z,1.27
2023-12-29T05:51:54.292Z,2.47
2023-12-29T05:54:03.692Z,2.03
2023-12-29T05:56:12.707Z,1.60
2023-12-29T05:58:24.847Z,1.30
2023-12-29T06:00:34.813Z,1.13
2023-12-29T06:02:44.348Z,1.40
2023-12-29T06:04:53.576Z,1.10
2023-12-29T06:07:02.806Z,1.17
2023-12-29T18:56:47.301Z,37.27
2023-12-29T18:58:55.953Z,40.27
2023-12-29T19:01:05.645Z,40.80
2023-12-29T19:03:16.202Z,39.50
2023-12-29T19:05:24.968Z,25.23
2023-12-29T19:07:34.079Z,22.93
2023-12-29T19:09:45.606Z,21.00
2023-12-29T19:11:56.556Z,22.50
2023-12-29T19:14:05.517Z,35.80
2023-12-29T19:16:21.738Z,31.63
2023-12-29T19:18:30.565Z,36.73
2023-12-29T19:20:40.738Z,53.37
2023-12-29T19:22:49.611Z,35.20
2023-12-29T19:24:59.060Z,35.83
2023-12-29T19:27:11.722Z,37.43
2023-12-29T19:29:20.839Z,31.23
2023-12-29T19:31:28.582Z,35.57
2023-12-29T19:33:38.217Z,37.50
2023-12-29T19:35:47.582Z,30.60
2023-12-29T19:37:56.311Z,47.77
2023-12-29T19:40:07.292Z,34.63
2023-12-29T19:42:18.134Z,20.50
2023-12-29T19:44:27.090Z,34.37
2023-12-29T19:46:35.762Z,48.90
2023-12-29T19:48:45.176Z,35.67
2023-12-29T19:50:54.072Z,31.23
2023-12-29T19:53:04.654Z,30.37
2023-12-29T19:55:14.303Z,24.37
2023-12-29T19:57:25.060Z,34.33
2023-12-29T19:59:33.795Z,22.10
2023-12-29T20:01:48.903Z,28.50
2023-12-29T20:03:57.900Z,31.63
2023-12-29T20:06:07.189Z,32.23
2023-12-29T20:08:16.432Z,22.33
2023-12-29T20:10:25.138Z,32.83
2023-12-29T20:12:35.814Z,41.27
2023-12-29T20:14:44.445Z,25.10
2023-12-29T20:16:54.958Z,38.77
2023-12-29T20:19:03.084Z,24.17
2023-12-29T20:21:12.090Z,37.63
2023-12-29T20:23:20.959Z,30.80
2023-12-29T20:25:31.092Z,32.87
2023-12-29T20:27:41.714Z,29.47
2023-12-29T20:29:51.939Z,33.43
2023-12-29T20:32:00.853Z,43.17
2023-12-29T20:34:09.685Z,27.83
2023-12-29T20:36:18.171Z,33.53
2023-12-29T20:38:26.745Z,29.60
2023-12-29T20:40:35.609Z,30.20
2023-12-29T20:42:47.155Z,22.63
2023-12-29T20:44:58.174Z,23.20
2023-12-29T20:47:07.943Z,29.60
2023-12-29T20:49:17.275Z,31.67
2023-12-29T20:51:25.972Z,19.53
2023-12-29T20:53:34.972Z,24.37
2023-12-29T20:55:43.776Z,29.40
2023-12-29T20:57:54.758Z,26.47
2023-12-29T21:00:04.062Z,27.93
2023-12-29T21:02:13.706Z,31.37
2023-12-29T21:04:24.048Z,23.33
2023-12-29T21:06:33.758Z,25.20
2023-12-29T21:08:42.991Z,21.27
2023-12-29T21:10:52.541Z,24.87
2023-12-29T21:13:02.247Z,19.90
2023-12-29T21:15:12.464Z,20.50
2023-12-29T21:17:21.566Z,17.40
2023-12-29T21:19:29.178Z,23.10
2023-12-29T21:21:40.055Z,25.83
2023-12-29T21:23:48.777Z,33.93
2023-12-29T21:25:58.325Z,29.63
2023-12-29T21:28:10.706Z,32.60
2023-12-29T21:30:19.813Z,26.60
2023-12-29T21:32:30.298Z,31.83
2023-12-29T21:34:38.057Z,32.17
2023-12-29T21:36:47.108Z,18.90
2023-12-29T21:38:57.214Z,21.40
2023-12-29T21:41:06.107Z,18.97
2023-12-29T21:43:16.704Z,23.53
2023-12-29T21:45:25.495Z,18.03
2023-12-29T21:47:34.367Z,14.77
2023-12-29T21:49:43.688Z,12.03
2023-12-29T21:51:53.899Z,22.50
2023-12-29T21:54:02.697Z,18.77
2023-12-29T21:56:12.026Z,13.17
2023-12-29T21:58:23.348Z,12.00
2023-12-29T22:00:32.945Z,11.97
2023-12-29T22:02:41.840Z,14.40
2023-12-29T22:04:50.985Z,15.13
2023-12-29T22:06:59.683Z,10.00
2023-12-29T22:09:07.466Z,10.30
2023-12-29T22:11:16.437Z,11.70
2023-12-29T22:13:26.878Z,10.27
2023-12-29T22:15:35.741Z,14.33
2023-12-29T22:17:44.645Z,12.70
2023-12-29T22:19:53.022Z,10.60
2023-12-29T22:22:02.064Z,9.60
2023-12-29T22:24:11.271Z,7.70
2023-12-29T22:26:21.595Z,11.50
2023-12-29T22:28:32.200Z,9.93
2023-12-29T22:30:41.160Z,10.10
2023-12-29T22:32:51.229Z,8.80
2023-12-29T22:35:00.558Z,8.20
2023-12-29T22:37:10.042Z,6.60
2023-12-29T22:39:18.713Z,9.97
2023-12-29T22:41:27.589Z,11.33
2023-12-29T22:43:37.955Z,9.40
2023-12-29T22:45:47.229Z,9.40
2023-12-29T22:47:56.114Z,9.67
2023-12-29T22:50:05.053Z,9.60
2023-12-29T22:52:15.928Z,5.43
2023-12-29T22:54:25.041Z,6.80
2023-12-29T22:56:32.732Z,8.30
2023-12-29T22:58:43.626Z,9.87
2023-12-29T23:00:52.855Z,9.87
2023-12-29T23:03:02.225Z,6.80
2023-12-29T23:05:12.047Z,14.77
2023-12-29T23:07:22.558Z,12.57
2023-12-29T23:09:30.460Z,4.90
2023-12-29T23:11:42.820Z,10.33
2023-12-29T23:13:55.133Z,8.40
2023-12-29T23:16:05.980Z,7.67
2023-12-29T23:18:15.065Z,7.80
2023-12-29T23:20:22.800Z,8.30
2023-12-29T23:22:31.588Z,7.23
2023-12-29T23:24:40.451Z,7.93
2023-12-29T23:26:48.257Z,5.83
2023-12-29T23:28:59.610Z,6.43
2023-12-29T23:31:10.754Z,9.30
2023-12-29T23:33:18.674Z,6.33
2023-12-29T23:35:27.999Z,6.07
2023-12-29T23:37:36.783Z,8.33
2023-12-29T23:39:45.798Z,8.70
2023-12-29T23:41:54.952Z,7.27
2023-12-29T23:44:04.241Z,4.67
2023-12-29T23:46:13.077Z,7.37
2023-12-29T23:48:22.641Z,4.20
2023-12-29T23:50:32.002Z,6.87
2023-12-29T23:52:40.955Z,3.70
2023-12-29T23:54:51.386Z,5.13
2023-12-29T23:57:01.544Z,6.20
2023-12-29T23:59:12.022Z,3.13
